Time;durP1;ratioP1;P1;durP2;ratioP2;P2;SDS_P1;SDS_P2;PMS_P1;PMS_P2;Temp;Humidity;BMP_temperature;BMP_pressure;BME280_temperature;BME280_humidity;BME280_pressure;Samples;Min_cycle;Max_cycle;Signal;HPM_P1;HPM_P2
2021/10/09 00:01:46;;;;;;;2.38;2.17;;;13.80;99.90;;;;;;4980599;28;20301;-78
2021/10/09 00:04:15;;;;;;;2.17;2.08;;;13.90;99.90;;;;;;5028317;28;20712;-79
2021/10/09 00:06:42;;;;;;;2.40;2.20;;;13.90;99.90;;;;;;5023559;28;20239;-78
2021/10/09 00:09:10;;;;;;;2.30;2.10;;;13.90;99.90;;;;;;5023555;28;20223;-78
2021/10/09 00:11:38;;;;;;;2.03;1.92;;;13.90;99.90;;;;;;5018303;28;20231;-78
2021/10/09 00:14:06;;;;;;;2.25;2.15;;;13.90;99.90;;;;;;5028628;28;20230;-77
2021/10/09 00:16:33;;;;;;;2.30;2.10;;;13.80;99.90;;;;;;5029280;28;20219;-78
2021/10/09 00:19:00;;;;;;;2.10;2.00;;;13.80;99.90;;;;;;5020838;28;20236;-78
2021/10/09 00:21:28;;;;;;;2.50;2.30;;;13.80;99.90;;;;;;5011466;28;20231;-78
2021/10/09 00:23:57;;;;;;;2.33;2.22;;;13.80;99.90;;;;;;5028687;28;20281;-78
2021/10/09 00:26:25;;;;;;;2.90;2.63;;;13.70;99.90;;;;;;5022203;28;20771;-79
2021/10/09 00:28:52;;;;;;;2.67;2.17;;;13.70;99.90;;;;;;5031843;28;20227;-79
2021/10/09 00:31:19;;;;;;;2.55;2.35;;;13.70;99.90;;;;;;5027100;28;20285;-77
2021/10/09 00:33:46;;;;;;;2.53;2.33;;;13.60;99.90;;;;;;4996467;28;20642;-78
2021/10/09 00:36:13;;;;;;;2.58;2.40;;;13.60;99.90;;;;;;5023055;28;20297;-79
2021/10/09 00:38:42;;;;;;;2.30;2.10;;;13.60;99.90;;;;;;5020427;28;20290;-78
2021/10/09 00:41:09;;;;;;;1.88;1.77;;;13.60;99.90;;;;;;5026940;28;20285;-78
2021/10/09 00:43:36;;;;;;;2.08;1.98;;;13.60;99.90;;;;;;5027889;28;20223;-78
2021/10/09 00:46:03;;;;;;;2.17;2.08;;;13.60;99.90;;;;;;5027092;28;20338;-79
2021/10/09 00:48:34;;;;;;;2.63;2.42;;;13.60;99.90;;;;;;5025526;28;20277;-79
2021/10/09 00:51:01;;;;;;;2.30;2.20;;;13.50;99.90;;;;;;5029613;28;20242;-79
2021/10/09 00:53:31;;;;;;;2.20;2.10;;;13.50;99.90;;;;;;5028471;28;20215;-79
2021/10/09 00:56:01;;;;;;;2.97;2.33;;;13.40;99.90;;;;;;5033467;28;20545;-80
2021/10/09 00:58:30;;;;;;;2.45;2.25;;;13.30;99.90;;;;;;5022648;28;20232;-79
2021/10/09 01:00:57;;;;;;;2.78;2.58;;;13.20;99.90;;;;;;5031740;28;20235;-80
2021/10/09 01:03:25;;;;;;;3.35;2.83;;;13.10;99.90;;;;;;5020779;28;20725;-78
2021/10/09 01:05:52;;;;;;;2.80;2.60;;;13.10;99.90;;;;;;5026119;28;20653;-79
2021/10/09 01:08:19;;;;;;;2.60;2.40;;;13.10;99.90;;;;;;5021727;28;20770;-78
2021/10/09 01:10:46;;;;;;;2.50;2.30;;;13.10;99.90;;;;;;5020778;28;20235;-79
2021/10/09 01:13:15;;;;;;;2.58;2.38;;;13.00;99.90;;;;;;5023821;28;20219;-79
2021/10/09 01:15:42;;;;;;;2.33;2.13;;;12.90;99.90;;;;;;5020236;28;20996;-78
2021/10/09 01:18:09;;;;;;;2.53;2.33;;;13.00;99.90;;;;;;5020832;28;20269;-78
2021/10/09 01:20:52;;;;;;;2.67;2.40;;;13.00;99.90;;;;;;5027454;28;20220;-79
2021/10/09 01:23:21;;;;;;;3.10;2.60;;;13.00;99.90;;;;;;5023329;28;20273;-78
2021/10/09 01:25:48;;;;;;;2.53;2.33;;;13.10;99.90;;;;;;5043167;28;20227;-78
2021/10/09 01:28:16;;;;;;;2.25;2.15;;;13.00;99.90;;;;;;5034507;28;20253;-79
2021/10/09 01:30:43;;;;;;;2.65;2.45;;;12.90;99.90;;;;;;5028674;28;20297;-79
2021/10/09 01:33:10;;;;;;;2.60;2.40;;;12.80;99.90;;;;;;5020226;28;20227;-79
2021/10/09 01:35:49;;;;;;;2.75;2.55;;;12.70;99.90;;;;;;5020772;28;20219;-79
2021/10/09 01:38:18;;;;;;;2.70;2.50;;;12.60;99.90;;;;;;5043526;28;20217;-79
2021/10/09 01:40:45;;;;;;;2.60;2.40;;;12.60;99.90;;;;;;5037016;28;20304;-78
2021/10/09 01:43:14;;;;;;;2.75;2.55;;;12.60;99.90;;;;;;5036710;28;20705;-80
2021/10/09 01:45:43;;;;;;;2.47;2.28;;;12.60;99.90;;;;;;5045485;28;20312;-79
2021/10/09 01:48:10;;;;;;;3.47;2.50;;;12.70;99.90;;;;;;5047568;28;20223;-78
2021/10/09 01:50:37;;;;;;;2.67;2.47;;;12.70;99.90;;;;;;5047997;28;20223;-78
2021/10/09 01:53:07;;;;;;;2.78;2.58;;;12.70;99.90;;;;;;5046682;28;20215;-79
2021/10/09 01:55:36;;;;;;;2.80;2.60;;;12.70;99.90;;;;;;5049034;28;20309;-78
2021/10/09 01:58:04;;;;;;;2.38;2.28;;;12.70;99.90;;;;;;5044573;28;20219;-79
2021/10/09 02:00:31;;;;;;;2.70;2.50;;;12.70;99.90;;;;;;5046574;28;20268;-79
2021/10/09 02:03:02;;;;;;;2.78;2.58;;;12.60;99.90;;;;;;5039369;28;20234;-78
2021/10/09 02:05:29;;;;;;;2.50;2.30;;;12.50;99.90;;;;;;5028064;28;20219;-79
2021/10/09 02:07:56;;;;;;;2.80;2.60;;;12.50;99.90;;;;;;5032729;28;20277;-79
2021/10/09 02:10:23;;;;;;;2.83;2.63;;;12.40;99.90;;;;;;5028075;28;20277;-79
2021/10/09 02:12:53;;;;;;;2.83;2.63;;;12.40;99.90;;;;;;5033908;28;20226;-78
2021/10/09 02:15:23;;;;;;;3.20;3.00;;;12.40;99.90;;;;;;5029010;28;20643;-78
2021/10/09 02:26:05;;;;;;;2.60;2.40;;;12.40;99.90;;;;;;5009259;28;20317;-79
2021/10/09 02:28:33;;;;;;;3.28;3.05;;;12.40;99.90;;;;;;5034719;28;20246;-78
2021/10/09 02:31:00;;;;;;;2.88;2.67;;;12.30;99.90;;;;;;5022061;28;20293;-78
2021/10/09 02:33:27;;;;;;;2.60;2.40;;;12.30;99.90;;;;;;5023004;28;20658;-78
2021/10/09 02:35:54;;;;;;;3.00;2.80;;;12.30;99.90;;;;;;5020752;28;20281;-78
2021/10/09 02:38:22;;;;;;;2.83;2.63;;;12.20;99.90;;;;;;5023568;28;20227;-78
2021/10/09 02:40:49;;;;;;;2.75;2.55;;;12.20;99.90;;;;;;5025891;28;20281;-78
2021/10/09 02:43:16;;;;;;;2.70;2.50;;;12.20;99.90;;;;;;5022260;28;20277;-79
2021/10/09 02:45:45;;;;;;;3.05;2.70;;;12.20;99.90;;;;;;5018480;28;20230;-78
2021/10/09 02:48:15;;;;;;;2.47;2.30;;;12.20;99.90;;;;;;5028978;28;20813;-78
2021/10/09 02:50:44;;;;;;;2.67;2.47;;;12.10;99.90;;;;;;5021247;28;20227;-79
2021/10/09 02:53:11;;;;;;;3.00;2.75;;;12.10;99.90;;;;;;5024042;28;20238;-79
2021/10/09 02:55:38;;;;;;;2.78;2.58;;;12.10;99.90;;;;;;5023592;28;20734;-77
2021/10/09 02:58:05;;;;;;;2.88;2.67;;;12.00;99.90;;;;;;5020764;28;20306;-79
2021/10/09 03:00:36;;;;;;;2.53;2.33;;;12.00;99.90;;;;;;5023329;28;20227;-78
2021/10/09 03:03:04;;;;;;;2.83;2.63;;;11.90;99.90;;;;;;5032987;28;20227;-79
2021/10/09 03:05:31;;;;;;;2.90;2.70;;;11.90;99.90;;;;;;5025778;28;20219;-79
2021/10/09 03:07:58;;;;;;;3.05;2.75;;;11.80;99.90;;;;;;5023735;28;20219;-79
2021/10/09 03:10:26;;;;;;;3.00;2.80;;;11.80;99.90;;;;;;5026456;28;20288;-79
2021/10/09 03:12:53;;;;;;;2.95;2.75;;;11.70;99.90;;;;;;5026460;28;20232;-79
2021/10/09 03:15:21;;;;;;;3.17;2.50;;;11.70;99.90;;;;;;5026560;28;20241;-79
2021/10/09 03:17:48;;;;;;;3.00;2.70;;;11.60;99.90;;;;;;5025071;28;20269;-79
2021/10/09 03:20:16;;;;;;;4.95;3.28;;;11.50;99.90;;;;;;5022677;28;20320;-80
2021/10/09 03:22:44;;;;;;;3.78;3.47;;;11.50;99.90;;;;;;5023306;28;20228;-79
2021/10/09 03:25:12;;;;;;;2.58;2.42;;;11.50;99.90;;;;;;5038544;28;20238;-78
2021/10/09 03:27:39;;;;;;;3.10;2.90;;;11.40;99.90;;;;;;5040733;28;20660;-79
2021/10/09 03:30:07;;;;;;;3.03;2.78;;;11.40;99.90;;;;;;5043203;28;20721;-78
2021/10/09 03:32:35;;;;;;;2.90;2.70;;;11.40;99.90;;;;;;5043401;28;20280;-78
2021/10/09 03:35:02;;;;;;;3.28;2.97;;;11.30;99.90;;;;;;5022674;28;20215;-79
2021/10/09 03:37:30;;;;;;;2.85;2.65;;;11.30;99.90;;;;;;5021918;28;20808;-79
2021/10/09 03:40:01;;;;;;;3.10;2.90;;;11.30;99.90;;;;;;5019826;28;20234;-78
2021/10/09 03:42:33;;;;;;;3.53;2.63;;;11.20;99.90;;;;;;5026635;28;20223;-79
2021/10/09 03:45:05;;;;;;;2.35;2.15;;;11.20;99.90;;;;;;5053494;23;20826;-69
2021/10/09 03:47:46;;;;;;;3.42;3.13;;;11.10;99.90;;;;;;5042461;28;20229;-70
2021/10/09 03:50:21;;;;;;;2.90;2.70;;;11.10;99.90;;;;;;5038759;28;20219;-69
2021/10/09 03:52:48;;;;;;;3.28;3.08;;;11.00;99.90;;;;;;5041553;28;20218;-69
2021/10/09 03:55:17;;;;;;;3.08;2.88;;;11.00;99.90;;;;;;5046099;28;20226;-71
2021/10/09 03:57:45;;;;;;;3.28;3.08;;;10.90;99.90;;;;;;5036196;28;20235;-68
2021/10/09 04:00:14;;;;;;;3.17;2.97;;;10.90;99.90;;;;;;5056914;28;20411;-69
2021/10/09 04:02:41;;;;;;;3.70;3.40;;;10.90;99.90;;;;;;5057246;28;20226;-68
2021/10/09 04:05:09;;;;;;;3.72;3.42;;;10.80;99.90;;;;;;5049655;28;20269;-69
2021/10/09 04:07:36;;;;;;;3.03;2.70;;;10.80;99.90;;;;;;5051985;28;20214;-71
2021/10/09 04:10:04;;;;;;;2.90;2.70;;;10.80;99.90;;;;;;5057475;28;20271;-72
2021/10/09 04:12:31;;;;;;;2.92;2.72;;;10.70;99.90;;;;;;5057821;28;20222;-68
2021/10/09 04:14:58;;;;;;;3.60;2.92;;;10.80;99.90;;;;;;5055548;28;20630;-71
2021/10/09 04:17:26;;;;;;;3.30;3.10;;;10.80;99.90;;;;;;5061609;28;20700;-71
2021/10/09 04:19:53;;;;;;;2.90;2.70;;;10.70;99.90;;;;;;5059336;28;20218;-71
2021/10/09 04:22:20;;;;;;;3.17;2.97;;;10.70;99.90;;;;;;5058172;28;20234;-71
2021/10/09 04:24:47;;;;;;;3.30;3.10;;;10.70;99.90;;;;;;5055089;28;20700;-73
2021/10/09 04:27:15;;;;;;;2.65;2.45;;;10.60;99.90;;;;;;5056199;28;20217;-73
2021/10/09 04:29:42;;;;;;;3.42;3.20;;;10.70;99.90;;;;;;5049835;28;20697;-72
2021/10/09 04:32:09;;;;;;;3.60;3.30;;;10.70;99.90;;;;;;5057626;28;20574;-75
2021/10/09 04:34:36;;;;;;;3.45;3.15;;;10.60;99.90;;;;;;5054587;28;20229;-71
2021/10/09 04:37:04;;;;;;;3.00;2.80;;;10.60;99.90;;;;;;5055494;28;20225;-75
2021/10/09 04:39:31;;;;;;;3.22;3.03;;;10.60;99.90;;;;;;5057569;28;20229;-71
2021/10/09 04:41:58;;;;;;;2.83;2.63;;;10.60;99.90;;;;;;5056387;28;20222;-69
2021/10/09 04:44:26;;;;;;;3.05;2.85;;;10.60;99.90;;;;;;5057555;28;20214;-69
2021/10/09 04:46:53;;;;;;;2.97;2.78;;;10.60;99.90;;;;;;5054020;28;20227;-76
2021/10/09 04:49:20;;;;;;;2.90;2.70;;;10.50;99.90;;;;;;5056756;28;20234;-69
2021/10/09 04:51:48;;;;;;;2.80;2.60;;;10.50;99.90;;;;;;5054093;28;20279;-71
2021/10/09 04:54:15;;;;;;;2.90;2.70;;;10.50;99.90;;;;;;5054941;28;20320;-74
2021/10/09 04:56:42;;;;;;;2.97;2.78;;;10.50;99.90;;;;;;5052584;28;20311;-71
2021/10/09 04:59:09;;;;;;;3.00;2.80;;;10.40;99.90;;;;;;5054556;28;20226;-70
2021/10/09 05:01:37;;;;;;;3.85;3.55;;;10.40;99.90;;;;;;5052716;28;20271;-71
2021/10/09 05:04:04;;;;;;;3.65;3.35;;;10.40;99.90;;;;;;5055061;28;20222;-70
2021/10/09 05:06:31;;;;;;;3.33;3.03;;;10.40;99.90;;;;;;5055631;28;20268;-70
2021/10/09 05:08:59;;;;;;;2.97;2.78;;;10.40;99.90;;;;;;5054500;28;20272;-71
2021/10/09 05:11:26;;;;;;;2.80;2.60;;;10.40;99.90;;;;;;5061297;28;20275;-70
2021/10/09 05:13:53;;;;;;;3.63;3.33;;;10.40;99.90;;;;;;5055549;28;20292;-70
2021/10/09 05:16:20;;;;;;;4.22;3.40;;;10.50;99.90;;;;;;5060181;28;20311;-71
2021/10/09 05:18:48;;;;;;;3.08;2.88;;;10.50;99.90;;;;;;5059957;28;20631;-75
2021/10/09 05:21:15;;;;;;;3.30;3.10;;;10.50;99.90;;;;;;5059106;28;20255;-74
2021/10/09 05:23:42;;;;;;;3.25;3.05;;;10.40;99.90;;;;;;5058149;28;20230;-71
2021/10/09 05:26:10;;;;;;;3.97;3.17;;;10.40;99.90;;;;;;5061426;28;20703;-73
2021/10/09 05:28:42;;;;;;;3.42;3.13;;;10.40;99.90;;;;;;5061864;28;20321;-72
2021/10/09 05:31:11;;;;;;;3.00;2.80;;;10.40;99.90;;;;;;5061576;28;20222;-73
2021/10/09 05:33:39;;;;;;;3.72;3.28;;;10.50;99.90;;;;;;5064886;28;20222;-69
2021/10/09 05:36:08;;;;;;;3.65;3.35;;;10.50;99.90;;;;;;5060320;28;20745;-73
2021/10/09 05:38:35;;;;;;;3.63;3.33;;;10.50;99.90;;;;;;5061859;28;20275;-70
2021/10/09 05:41:02;;;;;;;3.13;2.92;;;10.60;99.90;;;;;;5063482;28;20305;-73
2021/10/09 05:43:30;;;;;;;2.80;2.60;;;10.60;99.90;;;;;;5061840;28;20222;-70
2021/10/09 05:45:58;;;;;;;3.20;3.00;;;10.60;99.90;;;;;;5059120;28;20268;-73
2021/10/09 05:48:25;;;;;;;3.08;2.88;;;10.60;99.90;;;;;;5065365;28;20574;-70
2021/10/09 05:50:58;;;;;;;3.03;2.83;;;10.60;99.90;;;;;;5068238;28;20222;-70
2021/10/09 05:53:44;;;;;;;3.42;3.13;;;10.60;99.90;;;;;;5061471;28;20221;-73
2021/10/09 05:56:15;;;;;;;3.63;3.33;;;10.60;99.90;;;;;;5060330;28;20556;-70
2021/10/09 05:58:53;;;;;;;3.30;3.10;;;10.60;99.90;;;;;;5062112;28;20301;-72
2021/10/09 06:01:48;;;;;;;3.00;2.80;;;10.60;99.90;;;;;;5063300;28;20214;-69
2021/10/09 06:32:17;;;;;;;3.30;3.00;;;10.80;99.90;;;;;;5061973;28;20232;-74
2021/10/09 06:43:17;;;;;;;3.90;3.60;;;11.40;99.90;;;;;;5060589;28;20268;-74
2021/10/09 06:48:53;;;;;;;4.53;4.10;;;12.80;99.90;;;;;;5046767;28;20597;-71
2021/10/09 06:59:37;;;;;;;4.47;4.07;;;15.00;99.90;;;;;;5063166;28;20244;-70
2021/10/09 07:02:04;;;;;;;4.30;3.88;;;15.40;99.90;;;;;;5060915;28;20270;-70
2021/10/09 07:04:31;;;;;;;4.57;3.90;;;15.70;99.90;;;;;;5060878;28;20218;-70
2021/10/09 07:07:02;;;;;;;4.78;3.78;;;16.00;99.90;;;;;;5064297;28;20233;-70
2021/10/09 07:09:29;;;;;;;4.30;3.90;;;16.10;99.90;;;;;;5059498;28;20230;-70
2021/10/09 07:11:56;;;;;;;3.70;3.40;;;16.40;99.90;;;;;;5057821;28;20564;-70
2021/10/09 07:14:23;;;;;;;3.55;3.28;;;16.60;99.90;;;;;;5062909;28;20226;-70
2021/10/09 07:16:51;;;;;;;3.88;3.47;;;17.00;99.90;;;;;;5060844;28;20225;-71
2021/10/09 07:19:19;;;;;;;5.38;3.75;;;17.20;99.90;;;;;;5060730;28;20279;-70
2021/10/09 07:21:46;;;;;;;3.88;3.50;;;17.40;99.90;;;;;;5062842;28;20219;-70
2021/10/09 07:24:14;;;;;;;3.70;3.40;;;17.30;99.90;;;;;;5062827;28;20287;-70
2021/10/09 07:26:41;;;;;;;3.50;3.20;;;17.20;99.90;;;;;;5055778;28;20233;-70
2021/10/09 07:29:08;;;;;;;4.70;3.42;;;17.30;99.90;;;;;;5054188;28;20232;-69
2021/10/09 07:31:35;;;;;;;5.53;3.63;;;17.30;99.90;;;;;;5061187;28;20229;-70
2021/10/09 07:34:04;;;;;;;3.17;2.97;;;17.30;99.90;;;;;;5061575;28;20684;-71
2021/10/09 07:36:31;;;;;;;4.60;4.20;;;17.20;99.90;;;;;;5060445;28;20260;-70
2021/10/09 07:38:58;;;;;;;3.80;3.50;;;17.20;99.90;;;;;;5054778;28;20225;-71
2021/10/09 07:41:25;;;;;;;3.75;3.45;;;17.10;99.90;;;;;;5062564;28;20769;-72
2021/10/09 07:43:52;;;;;;;3.97;3.65;;;17.00;99.90;;;;;;5054502;28;20225;-71
2021/10/09 07:46:19;;;;;;;4.15;3.75;;;17.00;99.90;;;;;;5059483;28;20218;-72
2021/10/09 07:48:46;;;;;;;4.05;3.40;;;16.90;99.90;;;;;;5064002;28;20624;-70
2021/10/09 07:51:14;;;;;;;3.80;3.50;;;16.90;99.90;;;;;;5059865;28;20229;-71
2021/10/09 07:53:41;;;;;;;5.22;3.85;;;16.80;99.90;;;;;;5053754;28;20235;-71
2021/10/09 07:56:08;;;;;;;5.00;3.45;;;16.80;99.90;;;;;;5058732;28;20222;-70
2021/10/09 07:58:35;;;;;;;3.95;3.65;;;16.80;99.90;;;;;;5052526;28;20276;-70
2021/10/09 08:01:02;;;;;;;3.90;3.47;;;16.70;99.90;;;;;;5052546;28;20222;-71
2021/10/09 08:03:29;;;;;;;3.60;3.30;;;16.90;99.90;;;;;;5059448;28;20213;-70
2021/10/09 08:05:56;;;;;;;4.00;3.70;;;17.20;99.90;;;;;;5059605;28;20218;-71
2021/10/09 08:08:24;;;;;;;3.20;2.97;;;17.40;99.90;;;;;;5058693;28;20267;-71
2021/10/09 08:10:53;;;;;;;4.30;3.83;;;17.50;99.90;;;;;;5054884;28;20225;-71
2021/10/09 08:13:21;;;;;;;4.35;3.60;;;17.70;99.90;;;;;;5056279;28;20245;-71
2021/10/09 08:15:48;;;;;;;4.40;3.30;;;17.70;99.90;;;;;;5055524;28;20228;-71
2021/10/09 08:18:15;;;;;;;3.70;3.33;;;18.00;99.90;;;;;;5052299;28;20226;-70
2021/10/09 08:20:44;;;;;;;4.03;3.30;;;18.20;99.90;;;;;;5056518;28;20217;-70
2021/10/09 08:23:14;;;;;;;3.72;3.38;;;18.30;99.90;;;;;;5056273;28;20784;-70
2021/10/09 08:36:56;;;;;;;4.13;3.65;;;18.30;99.90;;;;;;5053610;28;20291;-75
2021/10/09 08:39:22;;;;;;;4.30;3.58;;;18.10;99.90;;;;;;5055738;28;20750;-74
2021/10/09 08:41:51;;;;;;;3.83;3.08;;;17.90;99.90;;;;;;5058207;28;20960;-74
2021/10/09 08:44:19;;;;;;;3.33;3.03;;;17.70;99.90;;;;;;5060889;28;20271;-75
2021/10/09 08:46:46;;;;;;;3.60;3.30;;;17.80;99.90;;;;;;5054565;28;20689;-75
2021/10/09 08:49:13;;;;;;;3.75;3.30;;;18.00;99.90;;;;;;5060186;28;20225;-76
2021/10/09 08:51:41;;;;;;;3.65;3.38;;;18.30;99.90;;;;;;5061489;28;20223;-76
2021/10/09 08:54:10;;;;;;;3.95;3.63;;;18.40;99.90;;;;;;5053936;28;20221;-73
2021/10/09 08:56:39;;;;;;;3.60;3.30;;;18.60;99.90;;;;;;5064356;28;20781;-75
2021/10/09 08:59:09;;;;;;;3.75;3.40;;;18.60;99.90;;;;;;5067291;28;20237;-73
2021/10/09 09:01:43;;;;;;;4.28;3.88;;;18.60;99.90;;;;;;5065059;28;20718;-74
2021/10/09 09:04:27;;;;;;;3.78;3.40;;;18.50;99.90;;;;;;5064556;28;20229;-76
2021/10/09 09:26:46;;;;;;;6.20;4.20;;;19.10;99.90;;;;;;5057042;28;20771;-75
2021/10/09 09:32:26;;;;;;;3.35;3.00;;;19.00;99.90;;;;;;5057509;28;20221;-74
2021/10/09 09:40:40;;;;;;;3.42;3.13;;;18.90;99.90;;;;;;5050151;28;20271;-75
2021/10/09 09:43:09;;;;;;;3.65;2.90;;;18.90;99.90;;;;;;5052505;28;20218;-75
2021/10/09 09:45:37;;;;;;;3.40;3.10;;;19.30;99.90;;;;;;5038754;28;20234;-74
2021/10/09 09:48:08;;;;;;;3.45;3.15;;;20.00;99.90;;;;;;5044693;28;20219;-75
2021/10/09 09:50:36;;;;;;;3.70;3.40;;;20.30;99.90;;;;;;5039907;28;20230;-75
2021/10/09 09:53:05;;;;;;;3.10;2.88;;;20.30;99.90;;;;;;5039644;28;20218;-75
2021/10/09 09:55:33;;;;;;;4.35;3.50;;;19.90;99.90;;;;;;5041374;28;20227;-76
2021/10/09 09:58:01;;;;;;;3.67;3.33;;;19.70;99.90;;;;;;5042819;28;20215;-75
2021/10/09 10:00:34;;;;;;;4.00;3.63;;;19.90;99.90;;;;;;5039496;28;20227;-76
2021/10/09 10:03:03;;;;;;;3.30;3.00;;;20.00;99.90;;;;;;5039667;28;20226;-74
2021/10/09 10:05:32;;;;;;;4.13;3.67;;;20.10;99.90;;;;;;5037686;28;21128;-75
2021/10/09 10:07:59;;;;;;;3.03;2.72;;;20.00;99.90;;;;;;5045633;28;20697;-75
2021/10/09 10:10:26;;;;;;;3.65;3.35;;;20.00;99.90;;;;;;5046387;28;20287;-75
2021/10/09 10:12:57;;;;;;;3.35;3.05;;;20.50;99.90;;;;;;5042493;28;20293;-75
2021/10/09 10:15:32;;;;;;;3.97;3.60;;;20.40;99.90;;;;;;5040753;28;20588;-75
2021/10/09 10:17:59;;;;;;;3.70;3.40;;;20.10;99.90;;;;;;5052708;28;20249;-75
2021/10/09 10:20:48;;;;;;;3.75;3.42;;;19.70;99.90;;;;;;5056553;28;20222;-75
2021/10/09 10:23:36;;;;;;;2.95;2.67;;;19.60;99.90;;;;;;5056071;28;20301;-75
2021/10/09 10:26:30;;;;;;;3.65;3.35;;;19.60;99.90;;;;;;5066132;28;20524;-74
2021/10/09 10:29:25;;;;;;;3.30;3.10;;;19.50;99.90;;;;;;5059738;28;20222;-75
2021/10/09 10:32:24;;;;;;;3.63;3.33;;;19.70;99.90;;;;;;5061764;28;20680;-75
2021/10/09 10:34:51;;;;;;;3.90;2.85;;;20.00;99.90;;;;;;5005313;28;20608;-75
2021/10/09 10:37:36;;;;;;;3.60;3.28;;;20.00;99.90;;;;;;5049317;28;20225;-75
2021/10/09 10:40:04;;;;;;;3.38;3.08;;;20.20;99.90;;;;;;5061116;28;20225;-74
2021/10/09 10:42:31;;;;;;;3.95;3.40;;;20.20;99.90;;;;;;5059893;28;20222;-75
2021/10/09 10:48:00;;;;;;;3.53;3.22;;;19.60;99.90;;;;;;5061904;28;20240;-74
2021/10/09 10:54:30;;;;;;;3.85;3.55;;;19.60;99.90;;;;;;5059682;28;20253;-75
2021/10/09 10:57:19;;;;;;;3.53;3.22;;;19.80;99.90;;;;;;5058015;28;20318;-74
2021/10/09 10:59:52;;;;;;;3.50;3.20;;;19.80;99.90;;;;;;5051315;28;20684;-74
2021/10/09 11:02:22;;;;;;;3.50;3.20;;;19.80;99.90;;;;;;5062079;28;20217;-74
2021/10/09 11:04:50;;;;;;;3.80;3.50;;;20.00;99.90;;;;;;5056916;28;20684;-75
2021/10/09 11:07:18;;;;;;;3.00;2.70;;;20.10;99.90;;;;;;5062382;28;20564;-74
2021/10/09 11:09:49;;;;;;;3.38;3.13;;;20.00;99.90;;;;;;5059591;28;20357;-74
2021/10/09 11:12:24;;;;;;;3.95;3.63;;;19.80;99.90;;;;;;5062876;28;20382;-74
2021/10/09 11:14:52;;;;;;;3.67;3.38;;;20.00;99.90;;;;;;5055680;28;20512;-74
2021/10/09 11:17:19;;;;;;;3.50;3.20;;;20.10;99.90;;;;;;5048697;28;20241;-74
2021/10/09 11:19:48;;;;;;;3.08;2.88;;;20.10;99.90;;;;;;5031971;28;20227;-74
2021/10/09 11:22:17;;;;;;;3.15;2.92;;;20.10;99.90;;;;;;5043600;28;20697;-74
2021/10/09 11:24:48;;;;;;;3.40;3.10;;;20.30;99.90;;;;;;5062413;28;20234;-74
2021/10/09 11:27:17;;;;;;;3.03;2.83;;;20.30;99.90;;;;;;5063237;28;20619;-74
2021/10/09 11:30:02;;;;;;;6.93;3.20;;;20.00;99.90;;;;;;5060429;28;20230;-74
2021/10/09 11:32:32;;;;;;;3.30;3.00;;;19.70;99.90;;;;;;5063764;28;20299;-75
2021/10/09 11:34:59;;;;;;;3.05;2.85;;;19.80;99.90;;;;;;5059197;28;20734;-72
2021/10/09 11:37:27;;;;;;;4.78;3.53;;;19.80;99.90;;;;;;5057998;28;20218;-70
2021/10/09 11:39:58;;;;;;;3.25;3.05;;;19.90;99.90;;;;;;5061684;28;20234;-71
2021/10/09 11:42:28;;;;;;;3.20;2.92;;;19.80;99.90;;;;;;5062080;28;20233;-70
2021/10/09 11:45:06;;;;;;;3.40;3.10;;;20.00;99.90;;;;;;5059601;28;20321;-70
2021/10/09 11:56:04;;;;;;;3.33;2.80;;;21.10;99.90;;;;;;5064108;28;20730;-71
2021/10/09 11:58:31;;;;;;;3.20;2.90;;;21.20;99.90;;;;;;5065129;28;20300;-70
2021/10/09 12:00:59;;;;;;;4.03;3.28;;;21.10;99.90;;;;;;5061093;28;20594;-70
2021/10/09 12:03:35;;;;;;;3.55;3.25;;;21.10;99.90;;;;;;5060798;28;20218;-70
2021/10/09 12:06:07;;;;;;;3.55;3.15;;;21.10;99.90;;;;;;5060931;28;20249;-70
2021/10/09 12:08:40;;;;;;;3.40;3.10;;;20.90;99.90;;;;;;5058107;28;20245;-70
2021/10/09 12:11:15;;;;;;;3.33;3.08;;;20.60;99.90;;;;;;5056404;28;20296;-70
2021/10/09 12:13:47;;;;;;;4.05;3.75;;;20.50;99.90;;;;;;5060130;28;20237;-70
2021/10/09 12:16:14;;;;;;;3.33;3.13;;;20.30;99.90;;;;;;5060003;28;20643;-72
2021/10/09 12:18:54;;;;;;;2.92;2.72;;;19.90;99.90;;;;;;5058213;28;20295;-70
2021/10/09 12:21:23;;;;;;;3.30;3.00;;;19.80;99.90;;;;;;5060896;28;20241;-70
2021/10/09 12:23:52;;;;;;;3.60;3.30;;;20.00;99.90;;;;;;5055607;28;20226;-70
2021/10/09 12:26:24;;;;;;;3.50;3.20;;;20.10;99.90;;;;;;5061191;28;20305;-70
2021/10/09 12:29:12;;;;;;;3.72;2.72;;;20.10;99.90;;;;;;5053125;28;20621;-70
2021/10/09 12:31:46;;;;;;;4.00;3.30;;;20.20;99.90;;;;;;5055485;28;20716;-69
2021/10/09 12:34:30;;;;;;;3.42;3.13;;;20.20;99.90;;;;;;5055003;28;20222;-70
2021/10/09 12:37:11;;;;;;;3.25;3.03;;;20.20;99.90;;;;;;5053555;28;20218;-70
2021/10/09 12:39:39;;;;;;;2.85;2.55;;;20.10;99.90;;;;;;5055966;28;20221;-70
2021/10/09 12:42:08;;;;;;;4.20;3.00;;;20.00;99.90;;;;;;5056224;28;20225;-70
2021/10/09 12:44:35;;;;;;;3.03;2.70;;;19.90;99.90;;;;;;5060780;28;20225;-70
2021/10/09 12:47:02;;;;;;;3.10;2.90;;;19.90;99.90;;;;;;5060730;28;20218;-70
2021/10/09 12:49:29;;;;;;;3.00;2.80;;;19.80;99.90;;;;;;5061929;28;20267;-72
2021/10/09 12:51:56;;;;;;;3.25;2.95;;;19.70;99.90;;;;;;5054026;28;20232;-69
2021/10/09 12:54:25;;;;;;;3.90;3.40;;;19.60;99.90;;;;;;5055779;28;20253;-70
2021/10/09 12:56:52;;;;;;;4.30;3.90;;;19.60;99.90;;;;;;5059576;28;20297;-70
2021/10/09 12:59:22;;;;;;;4.50;4.10;;;19.50;99.90;;;;;;5063577;28;20309;-69
2021/10/09 13:01:49;;;;;;;3.88;3.58;;;19.50;99.90;;;;;;5055833;28;20260;-69
2021/10/09 13:04:16;;;;;;;3.63;3.33;;;19.50;99.90;;;;;;5053460;28;20925;-70
2021/10/09 13:06:43;;;;;;;4.35;3.83;;;19.60;99.90;;;;;;5057745;28;20240;-69
2021/10/09 13:09:11;;;;;;;3.75;3.45;;;19.70;99.90;;;;;;5053878;28;20732;-69
2021/10/09 13:11:46;;;;;;;3.17;2.92;;;19.90;99.90;;;;;;5059803;28;20633;-69
2021/10/09 13:14:13;;;;;;;3.80;3.50;;;20.00;99.90;;;;;;5059617;28;20229;-70
2021/10/09 13:16:41;;;;;;;4.75;3.50;;;20.20;99.90;;;;;;5060465;28;20917;-70
2021/10/09 13:19:08;;;;;;;3.13;2.83;;;20.20;99.90;;;;;;5065186;28;20644;-69
2021/10/09 13:21:35;;;;;;;4.53;3.40;;;20.20;99.90;;;;;;5060877;28;20311;-71
2021/10/09 13:24:02;;;;;;;3.45;2.90;;;20.20;99.90;;;;;;5058739;28;20214;-70
2021/10/09 13:26:31;;;;;;;3.53;3.22;;;20.00;99.90;;;;;;5054541;28;20221;-69
2021/10/09 13:28:58;;;;;;;3.30;3.00;;;20.20;99.90;;;;;;5053472;28;20219;-69
2021/10/09 13:31:25;;;;;;;3.33;2.85;;;20.20;99.90;;;;;;5062882;28;20226;-70
2021/10/09 13:33:54;;;;;;;3.10;2.90;;;20.40;99.90;;;;;;5044304;28;20720;-70
2021/10/09 13:36:21;;;;;;;2.50;2.40;;;20.40;99.90;;;;;;5046966;28;20302;-70
2021/10/09 13:38:48;;;;;;;3.05;2.85;;;20.50;99.90;;;;;;5037276;28;20303;-70
2021/10/09 13:41:16;;;;;;;2.90;2.70;;;20.60;99.90;;;;;;5042861;28;20284;-69
2021/10/09 13:43:43;;;;;;;4.00;3.45;;;20.50;99.90;;;;;;5045111;28;20230;-69
2021/10/09 13:46:12;;;;;;;3.53;3.08;;;20.30;99.90;;;;;;5042028;28;20227;-70
2021/10/09 13:48:39;;;;;;;3.83;3.40;;;19.90;99.90;;;;;;5059372;28;20210;-70
2021/10/09 13:51:12;;;;;;;5.95;3.45;;;19.70;99.90;;;;;;5064885;28;20217;-70
2021/10/09 13:53:39;;;;;;;3.92;3.53;;;19.40;99.90;;;;;;5062361;28;20226;-70
2021/10/09 13:56:06;;;;;;;4.00;3.70;;;19.30;99.90;;;;;;5064308;28;20598;-70
2021/10/09 13:58:33;;;;;;;3.53;3.22;;;19.20;99.90;;;;;;5063185;28;20230;-69
2021/10/09 14:01:01;;;;;;;3.60;3.30;;;19.20;99.90;;;;;;5062959;28;20703;-70
2021/10/09 14:03:30;;;;;;;3.67;3.35;;;19.20;99.90;;;;;;5063042;28;20275;-69
2021/10/09 14:05:57;;;;;;;3.67;3.38;;;19.10;99.90;;;;;;5064180;28;20218;-70
2021/10/09 14:08:27;;;;;;;6.40;3.65;;;19.10;99.90;;;;;;5066234;28;20272;-70
2021/10/09 14:10:54;;;;;;;3.85;3.55;;;18.90;99.90;;;;;;5063862;28;20271;-70
2021/10/09 14:13:22;;;;;;;3.70;3.40;;;18.90;99.90;;;;;;5060370;28;20297;-70
2021/10/09 14:15:49;;;;;;;4.13;3.72;;;18.80;99.90;;;;;;5064731;28;20588;-70
2021/10/09 14:18:17;;;;;;;4.97;3.45;;;18.80;99.90;;;;;;5066726;28;20758;-69
2021/10/09 14:20:46;;;;;;;4.13;3.53;;;18.80;99.90;;;;;;5063346;28;20298;-69
2021/10/09 14:23:14;;;;;;;4.05;3.65;;;18.70;99.90;;;;;;5067127;28;20229;-69
2021/10/09 14:25:42;;;;;;;5.45;3.88;;;18.70;99.90;;;;;;5060853;28;20649;-69
2021/10/09 14:28:10;;;;;;;4.90;4.32;;;18.50;99.90;;;;;;5045060;28;20214;-70
2021/10/09 14:30:38;;;;;;;7.20;4.13;;;18.40;99.90;;;;;;5046232;28;20280;-69
2021/10/09 14:33:05;;;;;;;4.95;4.10;;;18.40;99.90;;;;;;5045667;28;20600;-69
2021/10/09 14:35:32;;;;;;;5.38;4.82;;;18.40;99.90;;;;;;5046007;28;20284;-69
2021/10/09 14:37:59;;;;;;;4.65;4.25;;;18.30;99.90;;;;;;5036073;28;20222;-69
2021/10/09 14:40:27;;;;;;;5.00;4.40;;;18.20;99.90;;;;;;5045918;28;20276;-69
2021/10/09 14:42:55;;;;;;;5.35;4.75;;;18.20;99.90;;;;;;5041896;28;20226;-69
2021/10/09 14:45:23;;;;;;;5.55;4.78;;;18.30;99.90;;;;;;5046140;28;20222;-70
2021/10/09 14:47:58;;;;;;;5.15;4.00;;;18.20;99.90;;;;;;5045035;28;20246;-69
2021/10/09 14:53:20;;;;;;;4.35;3.95;;;18.20;99.90;;;;;;5011833;28;20225;-70